Terminal Aerodrome Forecast
Issued by NWS Pendleton, OR

Home | Current Version | Previous Version | Text Only | Print | Product List | Glossary On
Versions: 1 2 3 4 5 6 7 8 9 10 11 12
000
FTUS46 KPDT 232320
TAFPDT
TAF
KPDT 232320Z 2400/2424 29010G18KT P6SM FEW250
     FM240600 29008KT P6SM FEW250
     FM242100 34010KT P6SM SKC=

USA.gov is the U.S. government's official web portal to all federal, state and local government web resources and services.